createdAt,value
2018-03-26T00:01:51.804Z,41.70
2018-03-26T00:04:19.102Z,38.27
2018-03-26T00:06:46.410Z,43.53
2018-03-26T00:09:13.689Z,38.93
2018-03-26T00:11:41.011Z,37.80
2018-03-26T00:14:08.313Z,36.37
2018-03-26T00:16:35.609Z,44.50
2018-03-26T00:19:02.912Z,42.80
2018-03-26T00:21:30.232Z,49.67
2018-03-26T00:23:57.613Z,51.53
2018-03-26T00:26:24.891Z,39.07
2018-03-26T00:28:52.177Z,42.87
2018-03-26T00:31:19.508Z,44.20
2018-03-26T00:33:46.771Z,38.40
2018-03-26T00:38:47.991Z,36.27
2018-03-26T00:41:15.303Z,46.90
2018-03-26T00:43:42.599Z,39.70
2018-03-26T00:46:09.900Z,40.90
2018-03-26T00:48:37.196Z,37.87
2018-03-26T00:51:04.505Z,48.80
2018-03-26T00:53:37.504Z,44.13
2018-03-26T00:56:04.799Z,41.70
2018-03-26T00:58:32.130Z,43.60
2018-03-26T01:00:59.463Z,49.40
2018-03-26T01:03:26.739Z,49.70
2018-03-26T01:05:54.026Z,47.37
2018-03-26T01:08:21.355Z,41.90
2018-03-26T01:10:48.619Z,55.30
2018-03-26T01:13:15.919Z,42.20
2018-03-26T01:15:43.243Z,48.17
2018-03-26T01:18:10.546Z,61.03
2018-03-26T01:20:38.822Z,48.53
2018-03-26T01:23:06.123Z,47.70
2018-03-26T01:25:33.402Z,46.67
2018-03-26T01:28:00.705Z,45.77
2018-03-26T01:30:28.002Z,46.53
2018-03-26T01:32:55.318Z,46.47
2018-03-26T01:35:22.635Z,47.80
2018-03-26T01:37:50.069Z,46.57
2018-03-26T01:40:17.353Z,60.23
2018-03-26T01:42:44.655Z,50.47
2018-03-26T01:45:11.941Z,50.67
2018-03-26T01:47:39.242Z,47.03
2018-03-26T01:50:06.562Z,49.60
2018-03-26T01:52:33.860Z,56.77
2018-03-26T01:55:01.156Z,50.63
2018-03-26T01:57:28.442Z,49.87
2018-03-26T01:59:55.744Z,49.67
2018-03-26T02:02:23.046Z,46.53
2018-03-26T02:04:50.343Z,56.93
2018-03-26T02:07:17.700Z,47.97
2018-03-26T02:09:45.010Z,42.77
2018-03-26T02:12:12.322Z,50.10
2018-03-26T02:14:39.659Z,50.77
2018-03-26T02:17:06.981Z,50.30
2018-03-26T02:19:34.271Z,47.60
2018-03-26T02:22:01.586Z,107.40
2018-03-26T02:24:28.896Z,52.10
2018-03-26T02:26:56.196Z,49.73
2018-03-26T02:29:23.470Z,49.60
2018-03-26T02:31:50.812Z,53.77
2018-03-26T02:34:18.208Z,52.53
2018-03-26T02:36:45.535Z,51.93
2018-03-26T02:39:12.824Z,49.30
2018-03-26T02:41:40.141Z,54.13
2018-03-26T02:44:07.430Z,51.27
2018-03-26T02:46:34.712Z,49.47
2018-03-26T02:49:02.017Z,44.53
2018-03-26T02:51:29.326Z,47.80
2018-03-26T02:53:56.621Z,49.17
2018-03-26T02:56:23.991Z,139.50
2018-03-26T02:58:51.284Z,49.90
2018-03-26T03:01:18.598Z,49.60
2018-03-26T03:03:45.912Z,53.70
2018-03-26T03:06:13.443Z,61.70
2018-03-26T03:08:40.733Z,52.23
2018-03-26T03:11:08.018Z,48.00
2018-03-26T03:13:35.339Z,45.33
2018-03-26T03:16:02.662Z,51.37
2018-03-26T03:18:29.970Z,45.80
2018-03-26T03:20:57.259Z,44.90
2018-03-26T03:23:24.567Z,45.10
2018-03-26T03:25:51.886Z,49.90
2018-03-26T03:28:19.179Z,54.77
2018-03-26T03:30:46.546Z,59.50
2018-03-26T03:33:13.824Z,53.33
2018-03-26T03:35:41.380Z,50.23
2018-03-26T03:38:08.672Z,50.77
2018-03-26T03:40:36.310Z,49.27
2018-03-26T03:43:03.598Z,53.30
2018-03-26T03:45:30.902Z,56.50
2018-03-26T03:47:58.190Z,56.70
2018-03-26T03:50:25.482Z,61.83
2018-03-26T03:52:52.778Z,53.03
2018-03-26T03:55:20.085Z,57.30
2018-03-26T03:57:47.392Z,49.30
2018-03-26T04:00:14.690Z,50.90
2018-03-26T04:02:42.021Z,52.43
2018-03-26T04:05:09.319Z,87.13
2018-03-26T04:07:36.624Z,54.10
2018-03-26T04:10:03.935Z,52.93
2018-03-26T04:12:31.224Z,50.90
2018-03-26T04:14:58.541Z,49.77
2018-03-26T04:17:25.868Z,56.80
2018-03-26T04:19:53.251Z,55.13
2018-03-26T04:22:20.546Z,64.57
2018-03-26T04:24:47.890Z,57.33
2018-03-26T04:27:15.188Z,49.43
2018-03-26T04:29:42.472Z,52.77
2018-03-26T04:32:09.864Z,57.73
2018-03-26T04:34:37.171Z,61.20
2018-03-26T04:37:04.493Z,76.07
2018-03-26T04:39:31.784Z,56.50
2018-03-26T04:41:59.082Z,67.27
2018-03-26T04:44:26.369Z,68.73
2018-03-26T04:46:53.674Z,116.53
2018-03-26T04:49:21.188Z,51.60
2018-03-26T04:51:48.477Z,54.70
2018-03-26T04:54:15.773Z,63.87
2018-03-26T04:56:43.761Z,63.97
2018-03-26T04:59:11.048Z,65.17
2018-03-26T05:01:38.363Z,56.93
2018-03-26T05:04:05.653Z,69.73
2018-03-26T05:06:32.937Z,61.67
2018-03-26T05:09:00.271Z,60.97
2018-03-26T05:11:27.543Z,71.07
2018-03-26T05:13:54.928Z,68.13
2018-03-26T05:16:22.214Z,61.23
2018-03-26T05:18:49.777Z,69.10
2018-03-26T05:21:17.136Z,75.33
2018-03-26T05:23:44.437Z,85.60
2018-03-26T05:26:11.733Z,67.83
2018-03-26T05:28:39.300Z,61.57
2018-03-26T05:31:06.635Z,79.47
2018-03-26T05:33:34.647Z,66.87
2018-03-26T05:36:01.937Z,82.97
2018-03-26T05:38:29.255Z,65.90
2018-03-26T05:40:56.558Z,62.40
2018-03-26T05:43:23.864Z,78.30
2018-03-26T05:45:51.173Z,69.00
2018-03-26T05:48:18.525Z,68.67
2018-03-26T05:50:45.871Z,78.10
2018-03-26T05:53:13.504Z,76.53
2018-03-26T05:55:40.839Z,61.30
2018-03-26T05:58:08.127Z,82.80
2018-03-26T06:00:35.415Z,71.33
2018-03-26T06:03:02.724Z,67.20
2018-03-26T06:05:30.155Z,65.53
2018-03-26T06:07:58.288Z,65.77
2018-03-26T06:10:25.617Z,64.67
2018-03-26T06:12:53.248Z,60.20
2018-03-26T06:15:20.635Z,60.90
2018-03-26T06:17:47.961Z,58.50
2018-03-26T06:20:15.508Z,51.17
2018-03-26T06:22:42.826Z,63.57
2018-03-26T06:25:10.197Z,55.80
2018-03-26T06:27:37.498Z,77.47
2018-03-26T06:30:04.829Z,74.70
2018-03-26T06:35:08.404Z,65.37
2018-03-26T06:37:41.371Z,65.87
2018-03-26T06:40:09.640Z,58.17
2018-03-26T06:42:36.928Z,67.23
2018-03-26T06:45:04.492Z,73.27
2018-03-26T06:47:31.878Z,56.83
2018-03-26T06:49:59.175Z,62.13
2018-03-26T06:52:26.513Z,71.03
2018-03-26T06:54:54.000Z,73.37
2018-03-26T06:57:21.614Z,68.40
2018-03-26T06:59:50.611Z,60.67
2018-03-26T07:02:18.004Z,66.43
2018-03-26T07:04:45.314Z,57.23
2018-03-26T07:07:12.742Z,75.10
2018-03-26T07:09:43.627Z,68.90
2018-03-26T07:12:12.319Z,81.53
2018-03-26T07:14:44.395Z,64.47
2018-03-26T07:17:11.778Z,86.83
2018-03-26T07:19:40.668Z,63.27
2018-03-26T07:22:11.969Z,68.10
2018-03-26T07:24:39.832Z,66.40
2018-03-26T07:27:07.302Z,68.10
2018-03-26T07:29:34.712Z,92.23
2018-03-26T07:32:02.482Z,89.40
2018-03-26T07:34:29.900Z,101.43
2018-03-26T07:36:57.213Z,77.77
2018-03-26T07:39:24.645Z,65.93
2018-03-26T07:41:52.241Z,67.20
2018-03-26T07:44:19.809Z,61.77
2018-03-26T07:46:47.118Z,68.77
2018-03-26T07:49:14.672Z,65.87
2018-03-26T07:51:42.442Z,66.27
2018-03-26T07:54:10.140Z,75.93
2018-03-26T07:56:41.481Z,88.10
2018-03-26T07:59:12.635Z,64.97
2018-03-26T08:01:40.063Z,65.17
2018-03-26T08:04:07.982Z,66.50
2018-03-26T08:06:38.928Z,58.77
2018-03-26T08:09:06.396Z,72.33
2018-03-26T08:11:33.706Z,91.70
2018-03-26T08:14:01.091Z,59.60
2018-03-26T08:16:28.471Z,65.30
2018-03-26T08:18:59.622Z,75.90
2018-03-26T08:21:27.095Z,67.73
2018-03-26T08:23:54.502Z,57.63
2018-03-26T08:26:21.883Z,54.87
2018-03-26T08:28:49.171Z,65.80
2018-03-26T08:31:16.613Z,53.93
2018-03-26T08:33:44.252Z,60.00
2018-03-26T08:36:13.227Z,64.70
2018-03-26T08:38:41.234Z,62.80
2018-03-26T08:41:09.763Z,79.63
2018-03-26T08:43:37.067Z,68.70
2018-03-26T08:46:04.384Z,86.57
2018-03-26T08:48:31.844Z,60.70
2018-03-26T08:50:59.222Z,74.20
2018-03-26T08:53:29.363Z,54.60
2018-03-26T08:58:25.998Z,51.33
2018-03-26T09:00:54.320Z,62.70
2018-03-26T09:08:24.963Z,74.57
2018-03-26T09:10:52.296Z,58.80
2018-03-26T09:13:19.629Z,57.57
2018-03-26T09:15:47.166Z,64.27
2018-03-26T09:18:14.559Z,62.97
2018-03-26T09:20:43.708Z,62.33
2018-03-26T09:23:11.016Z,58.00
2018-03-26T09:25:39.376Z,53.23
2018-03-26T09:28:06.765Z,53.40
2018-03-26T09:30:34.121Z,61.87
2018-03-26T09:33:01.729Z,65.50
2018-03-26T09:35:29.056Z,58.10
2018-03-26T09:37:56.365Z,59.53
2018-03-26T09:40:23.717Z,64.23
2018-03-26T09:42:51.175Z,58.10
2018-03-26T09:47:50.079Z,77.47
2018-03-26T09:50:17.431Z,59.37
2018-03-26T09:52:44.945Z,64.40
2018-03-26T09:55:12.323Z,57.67
2018-03-26T09:57:39.671Z,61.00
2018-03-26T10:00:06.992Z,55.43
2018-03-26T10:02:34.511Z,57.53
2018-03-26T10:05:01.824Z,57.13
2018-03-26T10:07:29.186Z,58.53
2018-03-26T10:09:56.860Z,56.63
2018-03-26T10:12:24.165Z,64.70
2018-03-26T11:04:08.457Z,61.17
2018-03-26T11:06:36.043Z,64.77
2018-03-26T11:09:03.478Z,68.63
2018-03-26T11:14:04.899Z,56.03
2018-03-26T11:16:32.728Z,66.00
2018-03-26T11:19:00.571Z,53.10
2018-03-26T11:21:28.525Z,57.60
2018-03-26T11:26:28.236Z,67.77
2018-03-26T11:28:55.580Z,59.40
2018-03-26T11:31:22.971Z,50.00
2018-03-26T11:39:32.346Z,55.63
2018-03-26T11:41:59.690Z,70.53
2018-03-26T11:44:28.187Z,59.23
2018-03-26T11:46:56.496Z,64.70
2018-03-26T11:49:26.026Z,59.33
2018-03-26T11:51:53.453Z,62.47
2018-03-26T11:56:52.970Z,84.70
2018-03-26T11:59:20.598Z,63.27
2018-03-26T12:04:19.792Z,63.47
2018-03-26T12:06:47.900Z,63.80
2018-03-26T12:09:15.660Z,59.50
2018-03-26T12:11:42.956Z,69.37
2018-03-26T12:14:11.944Z,68.13
2018-03-26T12:16:39.608Z,66.23
2018-03-26T12:21:41.019Z,57.83
2018-03-26T12:24:14.900Z,72.00
2018-03-26T12:26:42.220Z,65.83
2018-03-26T12:29:15.520Z,70.20
2018-03-26T12:31:43.414Z,80.20
2018-03-26T12:34:16.632Z,63.43
2018-03-26T12:36:44.329Z,61.73
2018-03-26T12:39:15.343Z,69.10
2018-03-26T12:41:42.806Z,60.83
2018-03-26T12:44:14.569Z,73.53
2018-03-26T12:51:54.851Z,67.37
2018-03-26T12:54:22.330Z,65.23
2018-03-26T12:59:36.621Z,63.73
2018-03-26T13:02:09.839Z,74.07
2018-03-26T13:07:11.584Z,60.07
2018-03-26T13:09:39.864Z,59.30
2018-03-26T13:12:10.818Z,60.10
2018-03-26T13:14:38.153Z,63.03
2018-03-26T13:17:07.188Z,60.93
2018-03-26T13:19:34.562Z,53.10
2018-03-26T13:22:03.244Z,57.63
2018-03-26T13:27:02.328Z,64.33
2018-03-26T13:29:29.848Z,65.30
2018-03-26T13:37:01.878Z,60.20
2018-03-26T13:39:29.440Z,67.53
2018-03-26T13:41:56.798Z,73.90
2018-03-26T13:46:56.397Z,60.40
2018-03-26T13:49:24.111Z,63.83
2018-03-26T13:51:51.819Z,69.57
2018-03-26T13:59:30.596Z,66.20
2018-03-26T14:01:57.947Z,60.67
2018-03-26T14:06:56.883Z,74.50
2018-03-26T14:12:15.678Z,60.30
2018-03-26T14:14:50.611Z,80.53
2018-03-26T14:17:23.680Z,73.53
2018-03-26T14:27:43.906Z,72.50
2018-03-26T14:32:44.495Z,70.93
2018-03-26T14:38:05.724Z,68.73
2018-03-26T14:43:08.444Z,61.37
2018-03-26T14:45:36.919Z,66.33
2018-03-26T14:50:35.971Z,67.93
2018-03-26T14:53:03.326Z,80.17
2018-03-26T14:58:06.122Z,65.03
2018-03-26T15:00:33.482Z,68.03
2018-03-26T15:03:00.880Z,75.53
2018-03-26T15:08:00.899Z,68.33
2018-03-26T15:12:59.888Z,73.10
2018-03-26T15:18:08.534Z,70.20
2018-03-26T15:20:35.954Z,90.80
2018-03-26T15:23:03.348Z,71.83
2018-03-26T15:30:34.330Z,62.33
2018-03-26T15:33:02.608Z,80.83
2018-03-26T15:35:30.034Z,72.63
2018-03-26T15:40:33.288Z,72.03
2018-03-26T15:48:05.089Z,58.80
2018-03-26T15:53:15.085Z,69.03
2018-03-26T15:55:45.718Z,85.60
2018-03-26T15:58:13.183Z,66.50
2018-03-26T16:00:40.561Z,85.23
2018-03-26T16:03:13.883Z,67.03
2018-03-26T16:15:49.838Z,62.77
2018-03-26T16:18:17.480Z,75.60
2018-03-26T16:20:46.694Z,64.60
2018-03-26T16:23:15.291Z,63.83
2018-03-26T16:25:44.396Z,68.77
2018-03-26T16:31:18.441Z,73.00
2018-03-26T16:36:21.368Z,60.90
2018-03-26T16:38:48.747Z,65.50
2018-03-26T16:41:31.655Z,73.13
2018-03-26T16:43:59.170Z,68.90
2018-03-26T16:49:00.756Z,62.57
2018-03-26T16:53:59.805Z,76.27
2018-03-26T16:56:27.135Z,62.57
2018-03-26T16:58:54.464Z,72.50
2018-03-26T17:01:21.777Z,67.67
2018-03-26T17:03:49.104Z,83.87
2018-03-26T17:06:16.504Z,64.10
2018-03-26T17:08:45.652Z,72.87
2018-03-26T17:11:13.293Z,62.50
2018-03-26T17:13:41.072Z,56.80
2018-03-26T17:16:08.444Z,60.50
2018-03-26T17:18:35.868Z,70.63
2018-03-26T17:21:03.978Z,60.63
2018-03-26T17:23:31.367Z,53.03
2018-03-26T17:28:34.157Z,59.43
2018-03-26T17:31:01.511Z,68.70
2018-03-26T17:36:02.558Z,75.23
2018-03-26T17:41:01.728Z,59.67
2018-03-26T17:43:29.040Z,71.33
2018-03-26T17:45:56.738Z,68.60
2018-03-26T17:48:24.198Z,69.67
2018-03-26T17:50:51.534Z,68.23
2018-03-26T17:53:18.997Z,69.73
2018-03-26T17:55:48.026Z,62.33
2018-03-26T17:58:15.464Z,74.23
2018-03-26T18:00:42.774Z,92.60
2018-03-26T18:03:10.092Z,74.57
2018-03-26T18:05:37.541Z,64.93
2018-03-26T18:08:04.852Z,55.60
2018-03-26T18:10:32.272Z,67.73
2018-03-26T18:12:59.625Z,70.93
2018-03-26T18:15:29.286Z,71.53
2018-03-26T18:17:56.628Z,77.17
2018-03-26T18:20:24.846Z,69.00
2018-03-26T18:22:52.226Z,80.77
2018-03-26T18:25:19.761Z,87.27
2018-03-26T18:27:47.175Z,85.83
2018-03-26T18:30:14.499Z,91.63
2018-03-26T18:32:41.824Z,76.10
2018-03-26T18:35:09.141Z,79.80
2018-03-26T18:37:37.528Z,78.33
2018-03-26T18:40:04.888Z,77.83
2018-03-26T18:42:32.368Z,72.37
2018-03-26T18:44:59.823Z,76.57
2018-03-26T18:47:27.125Z,79.20
2018-03-26T18:49:54.547Z,70.30
2018-03-26T18:52:21.867Z,75.63
2018-03-26T18:54:49.177Z,86.17
2018-03-26T18:57:16.576Z,76.57
2018-03-26T18:59:43.984Z,88.53
2018-03-26T19:02:11.295Z,67.17
2018-03-26T19:04:38.694Z,82.50
2018-03-26T19:07:06.574Z,71.80
2018-03-26T19:09:33.976Z,77.97
2018-03-26T19:12:01.342Z,77.17
2018-03-26T19:14:30.662Z,82.97
2018-03-26T19:16:59.301Z,79.90
2018-03-26T19:19:26.672Z,81.07
2018-03-26T19:21:54.075Z,92.80
2018-03-26T19:24:21.572Z,71.40
2018-03-26T19:26:49.271Z,68.73
2018-03-26T19:29:16.629Z,71.40
2018-03-26T19:31:43.953Z,72.73
2018-03-26T19:34:11.344Z,70.13
2018-03-26T19:36:38.666Z,87.63
2018-03-26T19:39:05.975Z,74.23
2018-03-26T19:41:33.318Z,77.53
2018-03-26T19:44:00.646Z,88.33
2018-03-26T19:46:27.923Z,86.23
2018-03-26T19:48:55.231Z,102.17
2018-03-26T19:51:22.534Z,106.60
2018-03-26T19:53:49.883Z,94.90
2018-03-26T19:56:17.187Z,99.00
2018-03-26T19:58:44.522Z,99.23
2018-03-26T20:01:11.823Z,99.27
2018-03-26T20:03:39.650Z,106.40
2018-03-26T20:06:06.944Z,96.93
2018-03-26T20:08:34.247Z,95.27
2018-03-26T20:11:01.616Z,90.10
2018-03-26T20:13:28.943Z,98.37
2018-03-26T20:15:56.231Z,120.50
2018-03-26T20:18:23.536Z,98.37
2018-03-26T20:20:50.850Z,92.90
2018-03-26T20:23:18.400Z,110.90
2018-03-26T20:25:45.697Z,105.40
2018-03-26T20:28:12.982Z,118.17
2018-03-26T20:30:40.304Z,115.27
2018-03-26T20:33:07.627Z,102.97
2018-03-26T20:35:34.915Z,114.57
2018-03-26T20:38:02.219Z,115.97
2018-03-26T20:40:29.505Z,111.60
2018-03-26T20:42:56.809Z,109.67
2018-03-26T20:45:24.104Z,119.77
2018-03-26T20:47:51.391Z,110.97
2018-03-26T20:50:18.782Z,108.77
2018-03-26T20:52:46.083Z,123.87
2018-03-26T20:55:13.433Z,121.83
2018-03-26T20:57:40.696Z,132.77
2018-03-26T21:00:07.990Z,117.67
2018-03-26T21:02:35.297Z,114.50
2018-03-26T21:05:02.630Z,120.80
2018-03-26T21:07:29.910Z,113.33
2018-03-26T21:09:57.210Z,98.23
2018-03-26T21:12:24.501Z,115.33
2018-03-26T21:14:51.827Z,117.40
2018-03-26T21:17:19.143Z,113.40
2018-03-26T21:19:46.464Z,107.93
2018-03-26T21:22:13.784Z,106.17
2018-03-26T21:24:41.074Z,115.17
2018-03-26T21:27:08.411Z,120.67
2018-03-26T21:29:35.695Z,112.43
2018-03-26T21:32:03.001Z,109.53
2018-03-26T21:34:34.195Z,120.40
2018-03-26T21:37:01.486Z,113.03
2018-03-26T21:39:28.779Z,117.37
2018-03-26T21:41:56.074Z,109.07
2018-03-26T21:44:23.377Z,109.10
2018-03-26T21:46:50.692Z,120.40
2018-03-26T21:49:17.983Z,108.47
2018-03-26T21:51:45.280Z,108.30
2018-03-26T21:54:12.580Z,113.47
2018-03-26T21:56:39.899Z,110.13
2018-03-26T21:59:07.187Z,106.63
2018-03-26T22:01:34.469Z,113.90
2018-03-26T22:04:01.802Z,115.13
2018-03-26T22:06:29.079Z,102.20
2018-03-26T22:08:56.375Z,109.07
2018-03-26T22:11:23.691Z,107.63
2018-03-26T22:13:50.981Z,117.50
2018-03-26T22:16:18.275Z,102.70
2018-03-26T22:18:45.553Z,109.97
2018-03-26T22:21:12.846Z,113.47
2018-03-26T22:23:40.155Z,105.83
2018-03-26T22:26:07.435Z,106.40
2018-03-26T22:28:34.746Z,118.87
2018-03-26T22:31:02.039Z,104.67
2018-03-26T22:33:29.356Z,112.40
2018-03-26T22:35:56.648Z,101.10
2018-03-26T22:38:23.931Z,93.03
2018-03-26T22:40:51.235Z,105.50
2018-03-26T22:43:18.523Z,105.73
2018-03-26T22:45:45.828Z,106.93
2018-03-26T22:48:13.126Z,102.10
2018-03-26T22:50:40.422Z,89.53
2018-03-26T22:53:07.716Z,102.33
2018-03-26T22:55:35.006Z,108.57
2018-03-26T22:58:02.304Z,97.83
2018-03-26T23:00:29.599Z,102.80
2018-03-26T23:02:56.900Z,104.10
2018-03-26T23:05:24.187Z,110.10
2018-03-26T23:07:51.488Z,101.37
2018-03-26T23:10:18.787Z,97.47
2018-03-26T23:12:46.093Z,107.67
2018-03-26T23:15:13.386Z,116.03
2018-03-26T23:17:40.676Z,114.43
2018-03-26T23:20:07.978Z,119.60
2018-03-26T23:22:40.976Z,109.23
2018-03-26T23:25:08.284Z,98.77
2018-03-26T23:27:35.563Z,110.40
2018-03-26T23:30:02.863Z,119.87
2018-03-26T23:32:30.167Z,110.30
2018-03-26T23:34:57.472Z,119.17
2018-03-26T23:37:24.766Z,109.93
2018-03-26T23:39:52.075Z,104.33
2018-03-26T23:42:19.365Z,100.73
2018-03-26T23:44:46.706Z,101.77
2018-03-26T23:47:13.988Z,118.63
2018-03-26T23:49:41.275Z,107.03
2018-03-26T23:52:08.568Z,109.43
2018-03-26T23:54:35.866Z,102.57
2018-03-26T23:57:03.164Z,111.10
2018-03-26T23:59:30.463Z,101.60
